Time;durP1;ratioP1;P1;durP2;ratioP2;P2;SDS_P1;SDS_P2;PMS_P1;PMS_P2;Temp;Humidity;BMP_temperature;BMP_pressure;BME280_temperature;BME280_humidity;BME280_pressure;Samples;Min_cycle;Max_cycle;Signal;HPM_P1;HPM_P2
2023/07/28 00:02:25;;;;;;;2.53;2.33;;;19.00;99.90;;;;;;4955594;29;20534;-83
2023/07/28 00:04:52;;;;;;;2.67;2.23;;;19.00;99.90;;;;;;4954915;29;20480;-84
2023/07/28 00:07:19;;;;;;;1.97;1.87;;;19.00;99.90;;;;;;4955487;29;20535;-83
2023/07/28 00:09:46;;;;;;;2.53;2.33;;;19.00;99.90;;;;;;4955092;29;20468;-83
2023/07/28 00:12:14;;;;;;;3.80;3.37;;;19.00;99.90;;;;;;4955542;29;20507;-83
2023/07/28 00:14:41;;;;;;;5.90;5.40;;;19.10;99.90;;;;;;4954855;28;20480;-85
2023/07/28 00:17:08;;;;;;;4.33;4.03;;;19.10;99.90;;;;;;4955677;29;20495;-84
2023/07/28 00:19:35;;;;;;;3.90;3.47;;;19.10;99.90;;;;;;4954996;29;20486;-82
2023/07/28 00:22:02;;;;;;;7.53;6.90;;;19.10;99.90;;;;;;4955403;29;20534;-82
2023/07/28 00:24:29;;;;;;;3.33;2.50;;;19.10;99.90;;;;;;4955114;29;20480;-82
2023/07/28 00:26:56;;;;;;;3.67;3.43;;;19.00;99.90;;;;;;4954740;29;20547;-81
2023/07/28 00:29:24;;;;;;;4.90;4.43;;;19.00;99.90;;;;;;4955655;29;20483;-84
2023/07/28 00:31:52;;;;;;;3.73;3.40;;;19.10;99.90;;;;;;4954841;29;20499;-83
2023/07/28 00:34:19;;;;;;;41.23;36.87;;;19.00;99.90;;;;;;4956708;28;20872;-84
2023/07/28 00:36:46;;;;;;;19.03;17.10;;;19.00;99.90;;;;;;4959170;29;20472;-84
2023/07/28 00:39:16;;;;;;;64.73;57.80;;;19.00;99.90;;;;;;4959307;29;21077;-84
2023/07/28 00:41:43;;;;;;;61.43;54.70;;;19.00;99.90;;;;;;4958456;29;20495;-83
2023/07/28 00:44:10;;;;;;;14.27;12.93;;;19.10;99.90;;;;;;4959673;29;20502;-84
2023/07/28 00:46:38;;;;;;;96.77;83.30;;;19.10;99.90;;;;;;4959955;29;20503;-83
2023/07/28 00:49:05;;;;;;;35.53;31.73;;;19.20;99.90;;;;;;4957947;29;20495;-83
2023/07/28 00:51:34;;;;;;;6.47;5.97;;;19.20;99.90;;;;;;4949501;29;20468;-83
2023/07/28 00:54:02;;;;;;;3.97;3.70;;;19.20;99.90;;;;;;4957859;29;20547;-83
2023/07/28 00:56:29;;;;;;;5.70;5.20;;;19.20;99.90;;;;;;4957499;29;20498;-82
2023/07/28 00:58:58;;;;;;;5.63;3.83;;;19.20;99.90;;;;;;4958116;28;20607;-84
2023/07/28 01:01:25;;;;;;;3.77;3.53;;;19.20;99.90;;;;;;4958407;28;20502;-82
2023/07/28 01:03:53;;;;;;;3.10;2.90;;;19.30;99.90;;;;;;4957747;28;20491;-83
2023/07/28 01:06:28;;;;;;;5.40;3.40;;;19.30;99.90;;;;;;4959458;28;20566;-82
2023/07/28 01:08:59;;;;;;;3.47;2.90;;;19.30;99.90;;;;;;4961945;28;20467;-82
2023/07/28 01:11:26;;;;;;;3.60;3.30;;;19.20;99.90;;;;;;4959443;28;20876;-81
2023/07/28 01:13:53;;;;;;;14.70;13.13;;;19.20;99.90;;;;;;4958761;28;20873;-83
2023/07/28 01:16:20;;;;;;;6.80;6.17;;;19.20;99.90;;;;;;4961452;28;20487;-83
2023/07/28 01:18:48;;;;;;;9.40;7.80;;;19.20;99.90;;;;;;4958783;29;20965;-83
2023/07/28 01:21:22;;;;;;;5.00;4.60;;;19.30;99.90;;;;;;4961411;29;20487;-81
2023/07/28 01:24:00;;;;;;;3.00;2.80;;;19.30;99.90;;;;;;4960696;29;20563;-81
2023/07/28 01:26:32;;;;;;;5.00;3.97;;;19.30;99.90;;;;;;4961321;29;20467;-83
2023/07/28 01:29:01;;;;;;;125.57;102.10;;;19.30;99.90;;;;;;4964464;29;20498;-81
2023/07/28 01:31:32;;;;;;;71.30;63.47;;;19.30;99.90;;;;;;4960652;29;20464;-82
2023/07/28 01:33:59;;;;;;;38.83;34.60;;;19.40;99.90;;;;;;4958668;29;20533;-83
2023/07/28 01:36:26;;;;;;;10.00;9.10;;;19.40;99.90;;;;;;4963012;29;20471;-82
2023/07/28 01:38:53;;;;;;;10.60;9.40;;;19.50;99.90;;;;;;4954353;29;20512;-85
2023/07/28 01:41:20;;;;;;;6.23;5.50;;;19.50;99.90;;;;;;4940120;29;20479;-82
2023/07/28 01:43:49;;;;;;;5.27;3.97;;;19.50;99.90;;;;;;4939008;29;21046;-82
2023/07/28 01:46:15;;;;;;;90.70;78.17;;;19.50;99.90;;;;;;4939356;29;20500;-83
2023/07/28 01:48:45;;;;;;;36.67;32.83;;;19.50;99.90;;;;;;4938687;29;21029;-82
2023/07/28 01:51:11;;;;;;;13.40;11.93;;;19.50;99.90;;;;;;4939349;29;20503;-83
2023/07/28 01:53:38;;;;;;;62.10;54.27;;;19.60;99.90;;;;;;4939058;29;21028;-83
2023/07/28 01:56:07;;;;;;;70.50;62.90;;;19.60;99.90;;;;;;4940127;29;20543;-82
2023/07/28 01:58:34;;;;;;;33.23;29.87;;;19.60;99.90;;;;;;4958452;28;20798;-85
2023/07/28 02:01:02;;;;;;;18.17;16.30;;;19.60;99.90;;;;;;4957980;28;20472;-83
2023/07/28 02:03:29;;;;;;;8.20;7.40;;;19.70;99.90;;;;;;4957995;28;20505;-81
2023/07/28 02:05:56;;;;;;;38.30;34.70;;;19.70;99.90;;;;;;4957544;28;20492;-82
2023/07/28 02:08:23;;;;;;;8.67;8.07;;;19.60;99.90;;;;;;4957659;28;20482;-82
2023/07/28 02:10:50;;;;;;;9.13;8.20;;;19.70;99.90;;;;;;4956981;28;20884;-85
2023/07/28 02:13:17;;;;;;;6.17;5.67;;;19.70;99.90;;;;;;4956339;28;20551;-81
2023/07/28 02:15:44;;;;;;;4.67;4.27;;;19.70;99.90;;;;;;4956779;28;20507;-82
2023/07/28 02:18:12;;;;;;;3.90;3.60;;;19.70;99.90;;;;;;4957130;28;20934;-82
2023/07/28 02:20:40;;;;;;;10.00;7.57;;;19.70;99.90;;;;;;4957935;28;20555;-82
2023/07/28 02:23:07;;;;;;;4.30;3.90;;;19.70;99.90;;;;;;4957171;29;20472;-82
2023/07/28 02:25:34;;;;;;;3.77;3.47;;;19.70;99.90;;;;;;4957584;29;20476;-86
2023/07/28 02:28:01;;;;;;;5.17;4.70;;;19.70;99.90;;;;;;4957155;29;20475;-85
2023/07/28 02:30:28;;;;;;;6.03;4.90;;;19.70;99.90;;;;;;4957678;29;20555;-85
2023/07/28 02:32:55;;;;;;;4.80;4.30;;;19.70;99.90;;;;;;4957011;29;21029;-85
2023/07/28 02:35:23;;;;;;;5.70;5.30;;;19.70;99.90;;;;;;4957415;29;20578;-85
2023/07/28 02:37:50;;;;;;;4.77;4.37;;;19.70;99.90;;;;;;4947685;29;20599;-82
2023/07/28 02:40:17;;;;;;;5.03;4.53;;;19.70;99.90;;;;;;4956324;28;20455;-85
2023/07/28 02:42:44;;;;;;;5.23;4.83;;;19.70;99.90;;;;;;4956975;29;20504;-82
2023/07/28 02:45:11;;;;;;;5.33;4.53;;;19.70;99.90;;;;;;4956518;29;20471;-82
2023/07/28 02:47:38;;;;;;;5.20;4.70;;;19.70;99.90;;;;;;4956561;29;20562;-82
2023/07/28 02:50:09;;;;;;;4.83;4.40;;;19.70;99.90;;;;;;4956520;29;20476;-81
2023/07/28 02:52:37;;;;;;;5.00;4.60;;;19.70;99.90;;;;;;4956954;29;20985;-85
2023/07/28 02:55:05;;;;;;;4.63;4.33;;;19.70;99.90;;;;;;4956100;29;20480;-82
2023/07/28 02:57:32;;;;;;;13.23;5.10;;;19.70;99.90;;;;;;4956127;28;20495;-82
2023/07/28 03:00:02;;;;;;;5.50;4.60;;;19.70;99.90;;;;;;4956362;29;20503;-82
2023/07/28 03:02:29;;;;;;;5.07;4.53;;;19.80;99.90;;;;;;4956775;29;20919;-85
2023/07/28 03:04:56;;;;;;;5.00;4.57;;;19.80;99.90;;;;;;4956246;29;20583;-84
2023/07/28 03:07:23;;;;;;;5.60;4.90;;;19.80;99.90;;;;;;4956366;29;20530;-81
2023/07/28 03:09:51;;;;;;;5.30;4.90;;;19.80;99.90;;;;;;4956557;29;20802;-81
2023/07/28 03:12:18;;;;;;;4.63;4.23;;;19.80;99.90;;;;;;4955980;29;20514;-81
2023/07/28 03:14:45;;;;;;;6.37;5.87;;;19.80;99.90;;;;;;4956486;28;20877;-82
2023/07/28 03:17:12;;;;;;;5.23;4.90;;;19.80;99.90;;;;;;4955819;29;20531;-81
2023/07/28 03:19:46;;;;;;;6.40;5.90;;;19.80;99.90;;;;;;4956292;29;20539;-85
2023/07/28 03:22:13;;;;;;;5.90;5.40;;;19.80;99.90;;;;;;4955866;29;20807;-85
2023/07/28 03:24:39;;;;;;;4.77;4.37;;;19.80;99.90;;;;;;4956386;29;20510;-84
2023/07/28 03:27:08;;;;;;;5.50;5.10;;;19.80;99.90;;;;;;4956235;29;20554;-84
2023/07/28 03:29:35;;;;;;;6.37;5.87;;;19.80;99.90;;;;;;4956089;29;20495;-84
2023/07/28 03:32:02;;;;;;;5.10;4.60;;;19.80;99.90;;;;;;4955954;29;21048;-84
2023/07/28 03:34:29;;;;;;;5.80;5.20;;;19.80;99.90;;;;;;4956285;29;20500;-84
2023/07/28 03:36:55;;;;;;;5.20;4.80;;;19.80;99.90;;;;;;4956189;29;20475;-84
2023/07/28 03:39:23;;;;;;;6.20;5.70;;;19.80;99.90;;;;;;4956392;29;20543;-84
2023/07/28 03:41:50;;;;;;;6.20;5.70;;;19.80;99.90;;;;;;4956887;29;20870;-84
2023/07/28 03:44:19;;;;;;;6.73;6.23;;;19.80;99.90;;;;;;4955871;29;20479;-84
2023/07/28 03:46:46;;;;;;;5.80;5.27;;;19.80;99.90;;;;;;4955928;29;20966;-84
2023/07/28 03:49:13;;;;;;;6.23;5.63;;;19.80;99.90;;;;;;4955120;29;21072;-80
2023/07/28 03:51:40;;;;;;;6.20;5.60;;;19.80;99.90;;;;;;4955717;29;20468;-81
2023/07/28 03:54:07;;;;;;;6.50;4.60;;;19.80;99.90;;;;;;4955461;29;20543;-84
2023/07/28 03:56:35;;;;;;;5.20;4.80;;;19.80;99.90;;;;;;4955701;29;20475;-84
2023/07/28 03:59:01;;;;;;;6.57;5.90;;;19.90;99.90;;;;;;4954967;29;20566;-81
2023/07/28 04:01:30;;;;;;;5.33;4.90;;;19.80;99.90;;;;;;4955989;29;20472;-85
2023/07/28 04:03:57;;;;;;;6.53;5.40;;;19.80;99.90;;;;;;4955776;29;20560;-81
2023/07/28 04:06:42;;;;;;;5.43;4.93;;;19.90;99.90;;;;;;4955460;29;20534;-85
2023/07/28 04:09:09;;;;;;;6.13;5.63;;;19.90;99.90;;;;;;4954793;28;20529;-81
2023/07/28 04:11:36;;;;;;;6.67;6.10;;;19.90;99.90;;;;;;4956214;29;20467;-85
2023/07/28 04:14:03;;;;;;;8.90;6.50;;;19.90;99.90;;;;;;4945517;29;20523;-81
2023/07/28 04:16:32;;;;;;;7.00;5.90;;;19.80;99.90;;;;;;4954607;28;20482;-84
2023/07/28 04:18:59;;;;;;;6.90;6.27;;;19.80;99.90;;;;;;4955143;29;20476;-80
2023/07/28 04:21:26;;;;;;;6.50;6.00;;;19.80;99.90;;;;;;4954927;29;20709;-86
2023/07/28 04:23:53;;;;;;;6.13;5.63;;;19.90;99.90;;;;;;4955468;29;20800;-86
2023/07/28 04:26:20;;;;;;;6.47;5.90;;;19.90;99.90;;;;;;4955275;29;20554;-85
2023/07/28 04:28:47;;;;;;;6.33;5.73;;;19.90;99.90;;;;;;4955034;29;20499;-82
2023/07/28 04:31:14;;;;;;;5.53;5.13;;;19.90;99.90;;;;;;4954978;29;20476;-85
2023/07/28 04:33:43;;;;;;;6.10;5.67;;;19.90;99.90;;;;;;4955156;29;20501;-85
2023/07/28 04:36:11;;;;;;;5.40;4.93;;;19.90;99.90;;;;;;4954871;29;20811;-85
2023/07/28 04:38:37;;;;;;;5.53;5.13;;;19.90;99.90;;;;;;4955472;29;20638;-82
2023/07/28 04:41:04;;;;;;;5.87;5.37;;;20.00;99.90;;;;;;4954866;29;20558;-81
2023/07/28 04:43:31;;;;;;;6.77;6.27;;;20.00;99.90;;;;;;4954223;29;20468;-82
2023/07/28 04:45:58;;;;;;;6.87;6.27;;;20.00;99.90;;;;;;4954867;29;20527;-81
2023/07/28 04:48:25;;;;;;;6.50;6.00;;;20.00;99.90;;;;;;4954416;29;20969;-81
2023/07/28 04:50:54;;;;;;;5.90;5.50;;;20.00;99.90;;;;;;4955376;29;20862;-81
2023/07/28 04:53:21;;;;;;;9.50;7.03;;;20.00;99.90;;;;;;4954634;29;20475;-85
2023/07/28 04:55:48;;;;;;;6.37;5.97;;;20.00;99.90;;;;;;4955144;29;20858;-85
2023/07/28 04:58:18;;;;;;;6.90;6.40;;;20.00;99.90;;;;;;4945070;29;20527;-85
2023/07/28 05:00:45;;;;;;;7.03;6.43;;;20.00;99.90;;;;;;4954722;28;20539;-85
2023/07/28 05:03:11;;;;;;;7.53;6.93;;;20.00;99.90;;;;;;4955009;29;20798;-82
2023/07/28 05:05:44;;;;;;;5.90;5.40;;;20.00;99.90;;;;;;4954615;29;20467;-82
2023/07/28 05:08:12;;;;;;;6.10;5.60;;;20.00;99.90;;;;;;4955355;29;20480;-82
2023/07/28 05:10:39;;;;;;;7.20;6.50;;;20.00;99.90;;;;;;4954743;29;20456;-82
2023/07/28 05:13:06;;;;;;;6.90;6.40;;;20.00;99.90;;;;;;4955049;29;20510;-85
2023/07/28 05:15:33;;;;;;;7.40;6.80;;;20.00;99.90;;;;;;4954713;28;20475;-82
2023/07/28 05:18:00;;;;;;;6.13;5.63;;;20.10;99.90;;;;;;4954702;29;20472;-86
2023/07/28 05:20:27;;;;;;;7.33;6.13;;;20.10;99.90;;;;;;4956072;28;20487;-85
2023/07/28 05:22:54;;;;;;;8.00;7.23;;;20.10;99.90;;;;;;4958664;29;20995;-82
2023/07/28 05:25:22;;;;;;;6.93;6.33;;;20.10;99.90;;;;;;4957854;29;20570;-82
2023/07/28 05:27:49;;;;;;;7.10;6.40;;;20.10;99.90;;;;;;4958536;29;20539;-86
2023/07/28 05:30:16;;;;;;;9.60;5.80;;;20.10;99.90;;;;;;4958495;29;20476;-85
2023/07/28 05:32:43;;;;;;;6.93;6.27;;;20.10;99.90;;;;;;4957588;29;20488;-82
2023/07/28 05:35:10;;;;;;;5.87;5.47;;;20.10;99.90;;;;;;4958566;29;20514;-85
2023/07/28 05:37:37;;;;;;;6.93;6.43;;;20.10;99.90;;;;;;4958044;29;20490;-82
2023/07/28 05:40:09;;;;;;;7.13;6.43;;;20.10;99.90;;;;;;4958083;29;20832;-85
2023/07/28 05:42:37;;;;;;;6.30;5.80;;;20.10;99.90;;;;;;4949407;29;20478;-85
2023/07/28 05:45:05;;;;;;;6.57;5.97;;;20.10;99.90;;;;;;4958514;29;20567;-82
2023/07/28 05:47:32;;;;;;;7.90;5.73;;;20.10;99.90;;;;;;4958456;29;20473;-82
2023/07/28 05:50:00;;;;;;;6.67;6.17;;;20.10;99.90;;;;;;4956780;29;20471;-82
2023/07/28 05:52:27;;;;;;;7.47;6.90;;;20.20;99.90;;;;;;4958786;29;20559;-82
2023/07/28 05:54:55;;;;;;;7.03;6.23;;;20.20;99.90;;;;;;4958530;29;20483;-85
2023/07/28 05:57:22;;;;;;;7.17;6.67;;;20.20;99.90;;;;;;4958425;29;20478;-86
2023/07/28 05:59:51;;;;;;;6.70;6.10;;;20.20;99.90;;;;;;4959208;29;20503;-86
2023/07/28 06:02:18;;;;;;;6.97;6.30;;;20.20;99.90;;;;;;4960002;29;20487;-85
2023/07/28 06:04:45;;;;;;;6.17;5.57;;;20.20;99.90;;;;;;4957533;29;20530;-82
2023/07/28 06:07:12;;;;;;;9.30;7.90;;;20.20;99.90;;;;;;4958290;29;20475;-81
2023/07/28 06:09:39;;;;;;;6.73;6.13;;;20.10;99.90;;;;;;4957761;29;21009;-86
2023/07/28 06:12:07;;;;;;;6.10;5.60;;;20.20;99.90;;;;;;4958951;29;20467;-86
2023/07/28 06:14:34;;;;;;;9.57;8.43;;;20.20;99.90;;;;;;4957353;28;20484;-82
2023/07/28 06:17:02;;;;;;;10.10;8.80;;;20.20;99.90;;;;;;4957936;29;20482;-82
2023/07/28 06:19:29;;;;;;;10.53;9.53;;;20.20;99.90;;;;;;4957728;29;20527;-85
2023/07/28 06:21:56;;;;;;;8.70;7.77;;;20.20;99.90;;;;;;4957795;29;20530;-86
2023/07/28 06:24:23;;;;;;;12.00;10.80;;;20.20;99.90;;;;;;4957780;29;20472;-82
2023/07/28 06:26:51;;;;;;;8.20;7.60;;;20.20;99.90;;;;;;4957127;29;20918;-82
2023/07/28 06:29:19;;;;;;;7.27;6.67;;;20.20;99.90;;;;;;4958175;29;20510;-85
2023/07/28 06:31:46;;;;;;;9.53;8.00;;;20.20;99.90;;;;;;4956407;28;20467;-82
2023/07/28 06:34:14;;;;;;;11.17;10.13;;;20.20;99.90;;;;;;4957553;29;20503;-82
2023/07/28 06:36:47;;;;;;;10.17;9.13;;;20.20;99.90;;;;;;4948187;28;20534;-85
2023/07/28 06:39:14;;;;;;;9.20;8.30;;;20.20;99.90;;;;;;4956625;29;20484;-85
2023/07/28 06:41:41;;;;;;;8.10;7.50;;;20.20;99.90;;;;;;4947128;28;20534;-82
2023/07/28 06:44:09;;;;;;;8.20;7.27;;;20.20;99.90;;;;;;4956529;29;20988;-81
2023/07/28 06:46:36;;;;;;;7.33;6.83;;;20.30;99.90;;;;;;4947678;29;20950;-82
2023/07/28 06:49:03;;;;;;;6.97;6.40;;;20.30;99.90;;;;;;4956979;29;21040;-82
2023/07/28 06:51:32;;;;;;;5.70;5.30;;;20.30;99.90;;;;;;4956933;29;20472;-82
2023/07/28 06:54:00;;;;;;;5.43;5.07;;;20.30;99.90;;;;;;4955985;29;20500;-85
2023/07/28 06:56:27;;;;;;;6.43;5.87;;;20.40;99.90;;;;;;4956884;29;20471;-85
2023/07/28 06:58:54;;;;;;;7.97;6.00;;;20.40;99.90;;;;;;4957338;29;20551;-85
2023/07/28 07:01:22;;;;;;;5.33;4.97;;;20.40;99.90;;;;;;4947881;28;20973;-83
2023/07/28 07:03:49;;;;;;;4.90;4.60;;;20.40;99.90;;;;;;4955318;28;20467;-82
2023/07/28 07:06:16;;;;;;;6.90;6.40;;;20.50;99.90;;;;;;4956599;29;20873;-82
2023/07/28 07:08:45;;;;;;;5.10;4.80;;;20.60;99.90;;;;;;4956286;29;20483;-86
2023/07/28 07:11:12;;;;;;;6.00;5.43;;;20.70;99.90;;;;;;4957029;29;20804;-86
2023/07/28 07:13:39;;;;;;;4.80;4.50;;;20.70;99.90;;;;;;4956932;29;20503;-86
2023/07/28 07:16:06;;;;;;;4.83;4.53;;;20.70;99.90;;;;;;4956601;28;20521;-82
2023/07/28 07:18:38;;;;;;;4.67;4.30;;;20.80;99.90;;;;;;4956558;29;20982;-82
2023/07/28 07:21:05;;;;;;;4.97;4.67;;;20.80;99.90;;;;;;4955603;29;20968;-85
2023/07/28 07:23:33;;;;;;;4.93;3.87;;;20.90;99.90;;;;;;4958557;29;21026;-85
2023/07/28 07:26:04;;;;;;;4.17;3.87;;;20.90;99.90;;;;;;4956185;29;21005;-86
2023/07/28 07:28:31;;;;;;;4.10;3.80;;;20.90;99.90;;;;;;4956654;29;20479;-81
2023/07/28 07:30:58;;;;;;;3.90;3.70;;;20.90;99.90;;;;;;4955671;29;20472;-81
2023/07/28 07:33:27;;;;;;;5.50;4.87;;;20.90;99.90;;;;;;4956498;29;20534;-86
2023/07/28 07:35:54;;;;;;;4.97;4.53;;;20.90;99.90;;;;;;4955840;29;20476;-83
2023/07/28 07:38:21;;;;;;;4.20;3.80;;;20.90;99.90;;;;;;4956817;29;20491;-82
2023/07/28 07:40:53;;;;;;;4.17;3.87;;;21.00;99.90;;;;;;4955677;29;20467;-80
2023/07/28 07:43:23;;;;;;;4.57;4.27;;;21.00;99.90;;;;;;4956101;28;20460;-85
2023/07/28 07:45:53;;;;;;;3.77;3.47;;;21.00;99.90;;;;;;4955369;29;20524;-87
2023/07/28 07:48:27;;;;;;;5.03;4.63;;;21.00;99.90;;;;;;4956412;29;20468;-82
2023/07/28 07:50:57;;;;;;;4.73;4.20;;;21.10;99.90;;;;;;4955165;29;20476;-86
2023/07/28 07:53:25;;;;;;;4.60;4.23;;;21.10;99.90;;;;;;4955679;29;20510;-82
2023/07/28 07:55:56;;;;;;;6.20;5.70;;;21.20;99.90;;;;;;4934990;28;20851;-82
2023/07/28 07:58:24;;;;;;;4.07;3.77;;;21.30;99.90;;;;;;4954629;29;20482;-85
2023/07/28 08:00:53;;;;;;;4.13;3.83;;;21.40;99.90;;;;;;4956144;29;20476;-86
2023/07/28 08:03:22;;;;;;;4.20;3.80;;;21.50;99.90;;;;;;4955275;29;20921;-86
2023/07/28 08:05:49;;;;;;;2.90;2.70;;;21.60;99.90;;;;;;4955782;29;20479;-82
2023/07/28 08:08:17;;;;;;;3.23;2.93;;;21.70;99.90;;;;;;4954240;29;20566;-81
2023/07/28 08:10:44;;;;;;;2.90;2.70;;;21.80;99.90;;;;;;4955566;29;20530;-82
2023/07/28 08:13:11;;;;;;;3.17;2.97;;;21.90;99.90;;;;;;4955568;29;20476;-86
2023/07/28 08:15:41;;;;;;;3.90;3.60;;;22.00;99.90;;;;;;4955388;28;20535;-82
2023/07/28 08:18:08;;;;;;;3.13;2.83;;;22.10;99.90;;;;;;4955270;29;20562;-81
2023/07/28 08:20:38;;;;;;;2.80;2.60;;;22.10;99.90;;;;;;4956095;29;20475;-81
2023/07/28 08:23:05;;;;;;;2.47;2.30;;;22.20;99.90;;;;;;4956418;29;20539;-86
2023/07/28 08:25:34;;;;;;;2.30;2.13;;;22.20;99.90;;;;;;4956390;29;20488;-81
2023/07/28 08:28:01;;;;;;;2.60;2.40;;;22.30;99.90;;;;;;4955176;29;20966;-86
2023/07/28 08:30:29;;;;;;;2.50;2.30;;;22.30;99.90;;;;;;4956663;29;20478;-87
2023/07/28 08:32:57;;;;;;;2.00;1.90;;;22.30;99.90;;;;;;4956390;29;20476;-86
2023/07/28 08:35:29;;;;;;;2.43;2.23;;;22.20;99.90;;;;;;4955598;29;20781;-85
2023/07/28 08:37:56;;;;;;;2.40;2.30;;;22.20;99.90;;;;;;4955771;29;20475;-85
2023/07/28 08:40:24;;;;;;;2.33;2.23;;;22.20;99.90;;;;;;4955046;29;20466;-85
2023/07/28 08:42:52;;;;;;;2.13;1.90;;;22.10;99.90;;;;;;4954803;29;20505;-81
2023/07/28 08:45:20;;;;;;;2.23;2.13;;;22.20;99.90;;;;;;4955007;29;20998;-81
2023/07/28 08:48:08;;;;;;;2.80;2.60;;;22.20;99.90;;;;;;4955402;29;20475;-85
2023/07/28 08:50:35;;;;;;;2.43;2.33;;;22.20;99.90;;;;;;4947461;29;20468;-85
2023/07/28 08:53:02;;;;;;;2.70;2.50;;;22.30;99.90;;;;;;4955313;29;20495;-85
2023/07/28 08:55:29;;;;;;;3.30;2.13;;;22.20;99.90;;;;;;4957270;28;20484;-82
2023/07/28 08:57:56;;;;;;;3.63;2.23;;;22.30;99.90;;;;;;4959824;29;20965;-81
2023/07/28 09:00:27;;;;;;;2.30;2.20;;;22.20;99.90;;;;;;4959161;29;21025;-81
2023/07/28 09:02:54;;;;;;;3.20;2.90;;;22.20;99.90;;;;;;4959073;28;20472;-85
2023/07/28 09:05:23;;;;;;;2.60;2.40;;;22.20;99.90;;;;;;4958754;29;20486;-81
2023/07/28 09:07:51;;;;;;;2.23;2.03;;;22.20;99.90;;;;;;4959296;29;20472;-83
2023/07/28 09:10:26;;;;;;;2.33;2.20;;;22.20;99.90;;;;;;4958427;29;20476;-81
2023/07/28 09:12:54;;;;;;;4.10;2.47;;;22.20;99.90;;;;;;4959346;29;20965;-82
2023/07/28 09:15:21;;;;;;;2.27;2.17;;;22.30;99.90;;;;;;4958153;28;20565;-86
2023/07/28 09:17:49;;;;;;;2.13;2.03;;;22.30;99.90;;;;;;4958786;29;20531;-81
2023/07/28 09:20:21;;;;;;;2.53;2.33;;;22.30;99.90;;;;;;4958624;29;20478;-87
2023/07/28 09:22:53;;;;;;;3.13;2.43;;;22.40;99.90;;;;;;4958662;29;20970;-82
2023/07/28 09:25:21;;;;;;;2.00;1.90;;;22.40;99.90;;;;;;4957674;29;20550;-86
2023/07/28 09:27:56;;;;;;;3.13;2.83;;;22.40;99.90;;;;;;4958561;29;20530;-82
2023/07/28 09:30:25;;;;;;;3.07;2.80;;;22.40;99.90;;;;;;4957902;29;20571;-86
2023/07/28 09:32:54;;;;;;;3.10;2.80;;;22.30;99.90;;;;;;4957590;29;20463;-87
2023/07/28 09:35:22;;;;;;;2.53;2.40;;;22.30;99.90;;;;;;4947660;28;20526;-81
2023/07/28 09:37:52;;;;;;;2.50;2.30;;;22.30;99.90;;;;;;4958215;29;20473;-85
2023/07/28 09:40:21;;;;;;;4.30;3.27;;;22.40;99.90;;;;;;4957253;29;20490;-81
2023/07/28 09:42:50;;;;;;;3.37;3.07;;;22.40;99.90;;;;;;4958332;29;20464;-81
2023/07/28 09:45:19;;;;;;;3.57;2.93;;;22.50;99.90;;;;;;4958701;29;20559;-86
2023/07/28 09:47:52;;;;;;;3.60;3.30;;;22.50;99.90;;;;;;4956835;29;20542;-81
2023/07/28 09:50:24;;;;;;;3.00;2.80;;;22.50;99.90;;;;;;4958586;29;20468;-81
2023/07/28 09:52:56;;;;;;;2.07;1.97;;;22.50;99.90;;;;;;4958102;29;20472;-81
2023/07/28 09:55:24;;;;;;;2.80;2.43;;;22.50;99.90;;;;;;4958383;29;20488;-86
2023/07/28 09:58:01;;;;;;;2.67;2.33;;;22.50;99.90;;;;;;4958282;29;20528;-86
2023/07/28 10:00:32;;;;;;;2.30;2.13;;;22.60;99.90;;;;;;4957597;29;20503;-82
2023/07/28 10:03:00;;;;;;;5.13;4.63;;;22.70;99.90;;;;;;4957780;29;20467;-82
2023/07/28 10:05:27;;;;;;;3.10;2.90;;;22.70;99.90;;;;;;4957865;28;20472;-81
2023/07/28 10:07:59;;;;;;;2.43;2.33;;;22.70;99.90;;;;;;4957339;29;20464;-81
2023/07/28 10:10:36;;;;;;;2.50;2.30;;;22.70;99.90;;;;;;4958583;29;20503;-86
2023/07/28 10:13:04;;;;;;;2.50;2.30;;;22.70;99.90;;;;;;4956980;29;20530;-85
2023/07/28 10:15:37;;;;;;;2.43;2.20;;;22.70;99.90;;;;;;4957484;28;20506;-81
2023/07/28 10:18:08;;;;;;;2.10;1.90;;;22.70;99.90;;;;;;4957724;29;20480;-85
2023/07/28 10:20:35;;;;;;;2.93;2.73;;;22.80;99.90;;;;;;4957501;29;20478;-86
2023/07/28 10:23:15;;;;;;;2.90;2.70;;;22.80;99.90;;;;;;4957256;29;20518;-85
2023/07/28 10:25:43;;;;;;;2.10;2.00;;;22.80;99.90;;;;;;4956265;29;20472;-81
2023/07/28 10:28:30;;;;;;;2.70;2.50;;;22.80;99.90;;;;;;4957327;29;20547;-86
2023/07/28 10:30:58;;;;;;;2.10;2.00;;;22.80;99.90;;;;;;4957386;29;20828;-85
2023/07/28 10:33:33;;;;;;;2.40;2.30;;;22.80;99.90;;;;;;4957350;29;20568;-81
2023/07/28 10:36:11;;;;;;;2.70;2.50;;;22.80;99.90;;;;;;4956921;29;20530;-81
2023/07/28 10:38:43;;;;;;;2.10;2.00;;;22.80;99.90;;;;;;4956476;29;20479;-81
2023/07/28 10:41:16;;;;;;;2.13;1.93;;;22.70;99.90;;;;;;4956951;29;20463;-81
2023/07/28 10:43:45;;;;;;;2.23;2.10;;;22.70;99.90;;;;;;4957546;29;20502;-84
2023/07/28 10:46:14;;;;;;;2.10;2.00;;;22.70;99.90;;;;;;4958583;29;20539;-86
2023/07/28 10:48:46;;;;;;;1.80;1.70;;;22.80;99.90;;;;;;4957514;29;20507;-86
2023/07/28 10:51:22;;;;;;;2.17;2.07;;;22.90;99.90;;;;;;4951325;28;20962;-86
2023/07/28 10:53:53;;;;;;;2.27;2.07;;;22.90;99.90;;;;;;4946880;28;20480;-86
2023/07/28 10:56:20;;;;;;;2.67;2.47;;;22.90;99.90;;;;;;4954807;28;20494;-85
2023/07/28 10:58:47;;;;;;;2.57;2.40;;;22.90;99.90;;;;;;4955296;28;20469;-86
2023/07/28 11:01:16;;;;;;;2.30;2.20;;;22.90;99.90;;;;;;4957218;28;20558;-81
2023/07/28 11:03:44;;;;;;;2.00;1.90;;;22.80;99.90;;;;;;4956588;28;20473;-81
2023/07/28 11:06:12;;;;;;;2.20;1.93;;;22.80;99.90;;;;;;4954949;28;20905;-85
2023/07/28 11:08:40;;;;;;;1.93;1.83;;;22.80;99.90;;;;;;4955664;28;20471;-85
2023/07/28 11:11:09;;;;;;;2.70;1.70;;;22.70;99.90;;;;;;4956445;28;20484;-85
2023/07/28 11:13:38;;;;;;;2.10;1.90;;;22.70;99.90;;;;;;4956174;28;20487;-86
2023/07/28 11:16:05;;;;;;;1.70;1.60;;;22.70;99.90;;;;;;4955845;28;20571;-86
2023/07/28 11:18:34;;;;;;;2.37;2.00;;;22.60;99.90;;;;;;4955492;28;20488;-86
2023/07/28 11:21:02;;;;;;;2.03;1.93;;;22.60;99.90;;;;;;4955640;28;20559;-86
2023/07/28 11:23:29;;;;;;;2.63;2.40;;;22.60;99.90;;;;;;4956169;28;20472;-86
2023/07/28 11:25:59;;;;;;;2.57;2.37;;;22.50;99.90;;;;;;4956266;28;20561;-82
2023/07/28 11:28:28;;;;;;;3.50;2.60;;;22.50;99.90;;;;;;4955754;28;20476;-82
2023/07/28 11:30:59;;;;;;;1.90;1.80;;;22.40;99.90;;;;;;4956022;28;20479;-81
2023/07/28 11:33:49;;;;;;;1.90;1.80;;;22.40;99.90;;;;;;4956108;28;20490;-81
2023/07/28 11:36:26;;;;;;;3.00;2.80;;;22.30;99.90;;;;;;4939513;28;20510;-81
2023/07/28 11:38:55;;;;;;;2.13;2.03;;;22.20;99.90;;;;;;4960712;28;20459;-81
2023/07/28 11:41:25;;;;;;;2.30;2.20;;;22.20;99.90;;;;;;4956333;28;20941;-81
2023/07/28 11:43:54;;;;;;;2.50;2.30;;;22.20;99.90;;;;;;4955035;28;20961;-85
2023/07/28 11:46:34;;;;;;;2.90;2.10;;;22.10;99.90;;;;;;4955882;28;20495;-86
2023/07/28 11:49:24;;;;;;;2.87;2.67;;;22.10;99.90;;;;;;4955132;28;20463;-81
2023/07/28 11:51:53;;;;;;;2.53;2.33;;;22.10;99.90;;;;;;4945595;28;20480;-81
2023/07/28 11:54:23;;;;;;;4.83;2.90;;;22.10;99.90;;;;;;4954985;28;20455;-86
2023/07/28 11:56:52;;;;;;;3.03;2.83;;;22.20;99.90;;;;;;4955802;28;20559;-86
2023/07/28 11:59:21;;;;;;;2.93;2.63;;;22.20;99.90;;;;;;4955326;28;20464;-86
2023/07/28 12:01:56;;;;;;;3.03;2.83;;;22.30;99.90;;;;;;4947703;28;20993;-82
2023/07/28 12:04:28;;;;;;;2.17;2.07;;;22.30;99.90;;;;;;4954617;28;20961;-81
2023/07/28 12:07:09;;;;;;;2.63;2.43;;;22.30;99.90;;;;;;4954871;28;20495;-82
2023/07/28 12:09:52;;;;;;;3.97;2.33;;;22.30;99.90;;;;;;4955880;28;20807;-86
2023/07/28 12:12:22;;;;;;;2.37;2.23;;;22.30;99.90;;;;;;4955222;28;20468;-87
2023/07/28 12:14:52;;;;;;;2.30;2.10;;;22.30;99.90;;;;;;4913793;28;1208825;-86
2023/07/28 12:17:20;;;;;;;1.70;1.60;;;22.30;99.90;;;;;;4955896;28;20966;-86
2023/07/28 12:19:58;;;;;;;2.07;1.97;;;22.30;99.90;;;;;;4955466;28;20519;-82
2023/07/28 12:22:26;;;;;;;2.93;2.23;;;22.30;99.90;;;;;;4955104;28;20471;-81
2023/07/28 12:24:53;;;;;;;1.87;1.73;;;22.20;99.90;;;;;;4956083;28;21025;-86
2023/07/28 12:27:23;;;;;;;2.20;2.10;;;22.20;99.90;;;;;;4955777;28;20551;-82
2023/07/28 12:29:52;;;;;;;2.20;1.80;;;22.20;99.90;;;;;;4954018;28;20471;-82
2023/07/28 12:32:19;;;;;;;2.20;2.10;;;22.20;99.90;;;;;;4955637;28;20984;-86
2023/07/28 12:34:45;;;;;;;2.13;1.90;;;22.20;99.90;;;;;;4954864;28;21036;-86
2023/07/28 12:37:12;;;;;;;1.90;1.80;;;22.20;99.90;;;;;;4955988;28;21023;-86
2023/07/28 12:39:40;;;;;;;2.20;2.00;;;22.10;99.90;;;;;;4954871;28;20562;-86
2023/07/28 12:42:07;;;;;;;1.80;1.70;;;22.10;99.90;;;;;;4955967;28;20772;-82
2023/07/28 12:44:35;;;;;;;1.90;1.80;;;22.20;99.90;;;;;;4955061;28;20475;-82
2023/07/28 12:47:04;;;;;;;2.67;2.47;;;22.10;99.90;;;;;;4955404;28;20467;-82
2023/07/28 12:49:31;;;;;;;2.60;2.40;;;22.20;99.90;;;;;;4955346;28;20472;-86
2023/07/28 12:51:58;;;;;;;2.40;2.20;;;22.20;99.90;;;;;;4955741;28;20463;-82
2023/07/28 12:54:26;;;;;;;2.13;2.03;;;22.20;99.90;;;;;;4962381;28;20482;-86